Tokyo, Japan

8:33 PM JST on February 13, 2016 (GMT +0900)
Tokyo (Haneda) International | | Change Station
CLOSE
Current Station
Airport
Location: Tokyo,
Elevation: 26 ft
Nearby Weather Stations

Elev 26 ft 35.55 °N, 139.78 °E | Updated 33 minutes ago

Light Rain
Light Rain
63 °F
Feels Like 63 °F
N
18
Wind Variable Wind from SSW

Today
High -- | Low -- °F
--% Chance of Precip.
Yesterday
High -- | Low -- °F
Precip. -- in
Pressure 29.98 in
Visibility 6.2 miles
Clouds Few 1500 ft
Mostly Cloudy 3000 ft
Dew Point 57 °F
Humidity 82%
Rainfall 0.00 in
Snow Depth Not available.
6:30 AM 5:19 PM
Waxing Crescent, 30% visible
METAR RJTT 131100Z 20016KT 9999 -RA FEW015 BKN030 17/14 Q1015 TEMPO 20020G30KT RMK 1CU015 7SC030 A2999
Pressure 29.98 in
Visibility 6.2 miles
Clouds Few 1500 ft
Mostly Cloudy 3000 ft
Dew Point 57 °F
Humidity 82%
Rainfall 0.00 in
Snow Depth Not available.
6:30 AM 5:19 PM
Waxing Crescent, 30% visible
METAR RJTT 131100Z 20016KT 9999 -RA FEW015 BKN030 17/14 Q1015 TEMPO 20020G30KT RMK 1CU015 7SC030 A2999

10-Day Weather Forecast

No radar image for this location.
×

Almanac

Astronomy

Feb. 13, 2016 Rise Set
Actual Time
Civil Twilight
Nautical Twilight
Astronomical Twilight
Moon
Length of Visible Light
Length of Day
Tomorrow will be .
, % of the Moon is Illuminated

Today's Extremes

Country Highs Country Lows

Community

WunderPhotos

Upload Photos

1,892,541 photos uploaded!

WunderBlog® & News

Nearby

Air Quality

  Air Quality AQ Index Pollutant
Not available.

Snow Depth

Station Depth Elevation

Earthquake Activity

City Distance Mag. Time & Date
Minimum magnitude displayed is 2.5.

Coastal Water Temperatures

Place Temperature

Stations

Nearby Weather Stations

Station Location Temp. Windchill Dew Point Humidity Wind Precip. Elev Updated Type